createdAt,value
2022-09-24T00:00:00.536Z,75.25
2022-09-24T00:02:29.239Z,75.76
2022-09-24T00:04:59.336Z,75.88
2022-09-24T00:07:27.982Z,75.56
2022-09-24T00:09:56.589Z,75.17
2022-09-24T00:12:25.264Z,75.74
2022-09-24T00:14:53.839Z,75.86
2022-09-24T00:17:23.031Z,76.22
2022-09-24T00:19:51.656Z,75.95
2022-09-24T00:22:21.818Z,76.03
2022-09-24T00:25:00.326Z,75.28
2022-09-24T00:27:29.175Z,75.32
2022-09-24T00:29:58.015Z,75.71
2022-09-24T00:32:27.589Z,75.65
2022-09-24T00:34:56.133Z,75.82
2022-09-24T00:37:26.249Z,75.76
2022-09-24T00:39:55.079Z,75.20
2022-09-24T00:42:23.671Z,75.12
2022-09-24T00:44:56.734Z,75.47
2022-09-24T00:47:32.595Z,75.34
2022-09-24T00:50:09.238Z,76.30
2022-09-24T00:52:47.059Z,75.87
2022-09-24T00:55:16.965Z,75.56
2022-09-24T00:57:46.630Z,76.08
2022-09-24T01:00:15.390Z,75.52
2022-09-24T01:02:48.368Z,76.27
2022-09-24T01:05:17.309Z,75.58
2022-09-24T01:07:48.451Z,76.20
2022-09-24T01:10:38.559Z,76.11
2022-09-24T01:13:19.168Z,76.10
2022-09-24T01:15:54.882Z,76.35
2022-09-24T01:18:35.467Z,76.55
2022-09-24T01:21:25.208Z,75.43
2022-09-24T01:24:11.358Z,75.44
2022-09-24T01:26:53.079Z,76.09
2022-09-24T01:29:42.370Z,76.29
2022-09-24T01:32:20.477Z,76.02
2022-09-24T01:34:54.037Z,75.46
2022-09-24T01:37:24.597Z,76.28
2022-09-24T01:39:56.250Z,75.28
2022-09-24T01:42:28.642Z,75.45
2022-09-24T01:44:59.631Z,76.00
2022-09-24T01:47:34.879Z,75.95
2022-09-24T01:50:06.019Z,75.78
2022-09-24T01:52:40.249Z,74.96
2022-09-24T01:55:11.893Z,76.15
2022-09-24T01:57:43.811Z,75.43
2022-09-24T02:00:16.690Z,75.23
2022-09-24T02:02:50.214Z,75.37
2022-09-24T02:05:27.422Z,76.23
2022-09-24T02:08:03.014Z,75.45
2022-09-24T02:10:39.389Z,74.99
2022-09-24T02:13:14.223Z,75.34
2022-09-24T02:15:48.300Z,76.02
2022-09-24T02:18:21.234Z,75.43
2022-09-24T02:20:53.113Z,75.32
2022-09-24T02:23:22.282Z,75.96
2022-09-24T02:25:58.429Z,75.85
2022-09-24T02:28:28.249Z,75.58
2022-09-24T02:31:00.597Z,75.17
2022-09-24T02:33:44.369Z,75.71
2022-09-24T02:36:13.631Z,76.17
2022-09-24T02:38:43.449Z,75.72
2022-09-24T02:41:12.171Z,76.49
2022-09-24T02:43:41.302Z,75.83
2022-09-24T02:46:11.484Z,76.12
2022-09-24T02:48:40.154Z,75.80
2022-09-24T02:51:08.771Z,75.96
2022-09-24T02:53:37.521Z,76.39
2022-09-24T02:56:08.204Z,75.52
2022-09-24T02:58:38.015Z,75.42
2022-09-24T03:01:06.569Z,75.70
2022-09-24T03:03:36.670Z,76.01
2022-09-24T03:06:05.681Z,75.75
2022-09-24T03:08:35.502Z,75.79
2022-09-24T03:11:04.602Z,76.06
2022-09-24T03:13:33.172Z,75.58
2022-09-24T03:16:02.029Z,75.79
2022-09-24T03:18:30.626Z,76.09
2022-09-24T03:21:04.385Z,75.87
2022-09-24T03:23:33.289Z,76.23
2022-09-24T03:26:02.073Z,75.42
2022-09-24T03:28:31.283Z,75.87
2022-09-24T03:31:02.149Z,76.10
2022-09-24T03:33:33.492Z,75.14
2022-09-24T03:36:06.421Z,76.01
2022-09-24T03:38:36.233Z,75.44
2022-09-24T03:41:04.790Z,75.62
2022-09-24T03:43:34.052Z,75.76
2022-09-24T03:46:03.110Z,76.13
2022-09-24T03:48:31.791Z,75.47
2022-09-24T03:51:06.893Z,75.98
2022-09-24T03:53:35.624Z,75.54
2022-09-24T03:56:05.878Z,76.36
2022-09-24T03:58:38.143Z,75.28
2022-09-24T04:01:07.568Z,75.77
2022-09-24T04:03:36.999Z,76.08
2022-09-24T04:06:08.424Z,76.02
2022-09-24T04:08:37.031Z,75.47
2022-09-24T04:11:05.899Z,75.24
2022-09-24T04:13:34.621Z,76.18
2022-09-24T04:16:03.808Z,75.78
2022-09-24T04:18:36.987Z,75.56
2022-09-24T04:21:09.585Z,75.51
2022-09-24T04:23:38.311Z,75.80
2022-09-24T04:26:06.930Z,75.28
2022-09-24T04:28:35.741Z,75.09
2022-09-24T04:31:04.845Z,75.91
2022-09-24T04:33:33.942Z,75.74
2022-09-24T04:36:02.990Z,75.19
2022-09-24T04:38:33.033Z,75.74
2022-09-24T04:41:07.701Z,75.58
2022-09-24T04:43:37.701Z,74.92
2022-09-24T04:46:07.104Z,75.34
2022-09-24T04:48:38.780Z,75.14
2022-09-24T04:51:09.226Z,75.89
2022-09-24T04:53:39.353Z,75.96
2022-09-24T04:56:11.737Z,76.09
2022-09-24T04:58:40.787Z,75.88
2022-09-24T05:01:09.592Z,76.46
2022-09-24T05:03:38.216Z,75.59
2022-09-24T05:06:07.181Z,75.30
2022-09-24T05:08:35.816Z,76.22
2022-09-24T05:11:06.075Z,76.06
2022-09-24T05:13:35.335Z,75.92
2022-09-24T05:16:04.474Z,75.46
2022-09-24T05:18:33.206Z,75.72
2022-09-24T05:21:01.793Z,75.26
2022-09-24T05:23:30.816Z,75.23
2022-09-24T05:26:09.408Z,75.79
2022-09-24T05:28:39.770Z,74.87
2022-09-24T05:31:09.791Z,75.35
2022-09-24T05:33:38.585Z,75.63
2022-09-24T05:36:07.727Z,75.19
2022-09-24T05:38:39.790Z,76.14
2022-09-24T05:41:10.932Z,75.20
2022-09-24T05:43:41.656Z,75.08
2022-09-24T05:46:10.411Z,75.73
2022-09-24T05:48:39.106Z,74.91
2022-09-24T05:51:07.742Z,75.04
2022-09-24T05:53:36.271Z,74.74
2022-09-24T05:56:05.115Z,75.09
2022-09-24T05:58:33.594Z,75.20
2022-09-24T06:01:03.633Z,74.55
2022-09-24T06:03:32.267Z,74.81
2022-09-24T06:06:02.544Z,74.14
2022-09-24T06:08:33.463Z,74.57
2022-09-24T06:11:02.730Z,74.66
2022-09-24T06:13:31.881Z,74.14
2022-09-24T06:16:06.513Z,74.47
2022-09-24T06:18:36.506Z,74.05
2022-09-24T06:21:08.177Z,74.20
2022-09-24T06:23:37.589Z,74.12
2022-09-24T06:26:08.533Z,73.37
2022-09-24T06:28:38.126Z,73.63
2022-09-24T06:31:09.520Z,72.90
2022-09-24T06:33:38.328Z,72.81
2022-09-24T06:36:07.028Z,72.70
2022-09-24T06:38:36.797Z,72.61
2022-09-24T06:41:06.370Z,73.05
2022-09-24T06:43:35.182Z,72.97
2022-09-24T06:46:05.281Z,72.80
2022-09-24T06:48:37.329Z,72.05
2022-09-24T06:51:06.938Z,71.83
2022-09-24T06:53:35.718Z,71.26
2022-09-24T06:56:04.759Z,70.85
2022-09-24T06:58:34.189Z,70.84
2022-09-24T07:01:04.154Z,70.26
2022-09-24T07:03:36.253Z,70.40
2022-09-24T07:06:06.776Z,69.81
2022-09-24T07:08:35.518Z,69.63
2022-09-24T07:11:04.339Z,70.14
2022-09-24T07:13:33.030Z,69.97
2022-09-24T07:16:01.742Z,69.69
2022-09-24T07:18:30.517Z,69.42
2022-09-24T07:21:00.521Z,69.22
2022-09-24T07:23:29.174Z,68.69
2022-09-24T07:25:58.616Z,67.96
2022-09-24T07:28:27.438Z,67.41
2022-09-24T07:31:00.519Z,67.26
2022-09-24T07:33:29.451Z,66.79
2022-09-24T07:35:58.080Z,66.52
2022-09-24T07:38:28.298Z,65.95
2022-09-24T07:40:59.621Z,65.69
2022-09-24T07:43:28.766Z,65.03
2022-09-24T07:45:58.457Z,65.04
2022-09-24T07:48:26.838Z,64.95
2022-09-24T07:50:55.511Z,64.61
2022-09-24T07:53:24.609Z,63.92
2022-09-24T07:55:56.561Z,64.57
2022-09-24T07:58:25.200Z,64.06
2022-09-24T08:00:53.918Z,63.76
2022-09-24T08:03:22.696Z,63.61
2022-09-24T08:05:52.329Z,63.62
2022-09-24T08:08:21.008Z,62.93
2022-09-24T08:10:49.632Z,62.28
2022-09-24T08:13:23.916Z,61.52
2022-09-24T08:15:59.971Z,61.51
2022-09-24T08:18:30.477Z,61.04
2022-09-24T08:21:00.339Z,60.79
2022-09-24T08:23:28.961Z,60.59
2022-09-24T08:25:57.557Z,60.62
2022-09-24T08:28:28.330Z,60.24
2022-09-24T08:31:00.690Z,61.11
2022-09-24T08:33:29.549Z,60.46
2022-09-24T08:36:00.990Z,59.49
2022-09-24T08:38:30.105Z,59.30
2022-09-24T08:41:06.738Z,59.26
2022-09-24T08:43:48.252Z,59.11
2022-09-24T08:46:31.406Z,59.15
2022-09-24T08:49:01.890Z,58.99
2022-09-24T08:51:36.705Z,59.54
2022-09-24T08:54:11.270Z,59.42
2022-09-24T08:56:45.277Z,59.01
2022-09-24T08:59:28.291Z,58.50
2022-09-24T09:02:13.654Z,58.57
2022-09-24T09:04:54.987Z,58.48
2022-09-24T09:07:30.670Z,58.02
2022-09-24T09:10:04.348Z,58.01
2022-09-24T09:12:39.471Z,58.46
2022-09-24T09:15:14.823Z,56.58
2022-09-24T09:17:49.470Z,55.54
2022-09-24T09:20:22.962Z,54.85
2022-09-24T09:22:55.137Z,54.32
2022-09-24T09:25:28.669Z,53.97
2022-09-24T09:28:02.112Z,53.88
2022-09-24T09:30:43.937Z,53.77
2022-09-24T09:33:28.871Z,53.95
2022-09-24T09:36:09.147Z,53.75
2022-09-24T09:38:45.500Z,53.11
2022-09-24T09:41:21.300Z,53.77
2022-09-24T09:43:50.021Z,53.52
2022-09-24T09:46:27.946Z,53.33
2022-09-24T09:49:03.351Z,52.75
2022-09-24T09:51:38.644Z,52.56
2022-09-24T09:54:07.644Z,52.48
2022-09-24T09:56:38.807Z,52.80
2022-09-24T09:59:17.351Z,52.36
2022-09-24T10:01:49.330Z,52.85
2022-09-24T10:04:32.828Z,51.99
2022-09-24T10:07:07.452Z,51.95
2022-09-24T10:09:37.054Z,52.51
2022-09-24T10:12:11.164Z,52.42
2022-09-24T10:14:39.815Z,51.78
2022-09-24T10:17:15.712Z,51.54
2022-09-24T10:19:51.162Z,51.46
2022-09-24T10:22:23.575Z,51.32
2022-09-24T10:24:54.312Z,51.34
2022-09-24T10:27:30.662Z,50.34
2022-09-24T10:30:10.175Z,50.42
2022-09-24T10:32:41.691Z,49.76
2022-09-24T10:35:24.874Z,49.50
2022-09-24T10:37:54.545Z,49.37
2022-09-24T10:40:26.072Z,49.46
2022-09-24T10:43:00.575Z,49.60
2022-09-24T10:45:48.762Z,49.22
2022-09-24T10:48:26.693Z,49.28
2022-09-24T10:51:02.132Z,49.49
2022-09-24T10:53:43.185Z,49.81
2022-09-24T10:56:22.850Z,50.09
2022-09-24T10:59:14.163Z,50.23
2022-09-24T11:01:51.011Z,49.73
2022-09-24T11:04:44.652Z,49.61
2022-09-24T11:07:34.956Z,48.86
2022-09-24T11:10:14.620Z,48.48
2022-09-24T11:12:49.054Z,48.21
2022-09-24T11:15:30.899Z,48.36
2022-09-24T11:18:18.467Z,48.28
2022-09-24T11:20:56.988Z,48.26
2022-09-24T11:23:43.458Z,47.57
2022-09-24T11:26:27.446Z,47.99
2022-09-24T11:29:31.141Z,47.88
2022-09-24T11:32:11.627Z,47.80
2022-09-24T11:35:01.034Z,47.92
2022-09-24T11:37:49.876Z,47.51
2022-09-24T11:40:37.497Z,47.12
2022-09-24T11:43:22.692Z,46.55
2022-09-24T11:46:07.161Z,46.38
2022-09-24T11:48:57.154Z,46.24
2022-09-24T11:51:41.018Z,46.23
2022-09-24T11:54:21.589Z,46.51
2022-09-24T11:56:53.578Z,46.87
2022-09-24T11:59:41.785Z,47.20
2022-09-24T12:02:18.439Z,47.49
2022-09-24T12:04:56.222Z,47.55
2022-09-24T12:07:33.754Z,47.71
2022-09-24T12:10:13.107Z,47.72
2022-09-24T12:12:45.589Z,47.37
2022-09-24T12:15:19.768Z,47.66
2022-09-24T12:17:54.850Z,47.46
2022-09-24T12:20:28.577Z,46.65
2022-09-24T12:23:01.968Z,46.78
2022-09-24T12:25:45.491Z,47.04
2022-09-24T12:28:37.747Z,47.06
2022-09-24T12:31:25.866Z,47.40
2022-09-24T12:34:00.559Z,47.62
2022-09-24T12:36:42.808Z,47.91
2022-09-24T12:39:14.560Z,48.24
2022-09-24T12:41:49.115Z,48.17
2022-09-24T12:44:22.986Z,48.17
2022-09-24T12:46:54.578Z,48.24
2022-09-24T12:49:33.703Z,48.12
2022-09-24T12:52:05.502Z,48.63
2022-09-24T12:54:36.682Z,48.72
2022-09-24T12:57:20.075Z,48.23
2022-09-24T12:59:53.979Z,48.23
2022-09-24T13:02:25.494Z,47.98
2022-09-24T13:05:17.700Z,47.84
2022-09-24T13:07:58.035Z,47.64
2022-09-24T13:10:29.170Z,47.78
2022-09-24T13:13:01.261Z,47.84
2022-09-24T13:15:36.069Z,47.52
2022-09-24T13:18:19.280Z,47.49
2022-09-24T13:21:01.734Z,47.58
2022-09-24T13:23:45.606Z,47.24
2022-09-24T13:26:28.211Z,47.22
2022-09-24T13:29:01.095Z,47.08
2022-09-24T13:31:39.147Z,47.45
2022-09-24T13:34:19.624Z,47.57
2022-09-24T13:36:57.961Z,47.51
2022-09-24T13:39:35.426Z,47.14
2022-09-24T13:42:14.894Z,46.49
2022-09-24T13:44:48.858Z,46.26
2022-09-24T13:47:29.509Z,46.38
2022-09-24T13:50:08.457Z,46.17
2022-09-24T13:52:43.257Z,46.62
2022-09-24T13:55:20.393Z,47.48
2022-09-24T13:57:50.159Z,48.09
2022-09-24T14:00:22.718Z,48.35
2022-09-24T14:02:58.902Z,48.91
2022-09-24T14:05:29.420Z,49.20
2022-09-24T14:08:02.697Z,49.59
2022-09-24T14:10:31.809Z,49.65
2022-09-24T14:13:02.431Z,49.75
2022-09-24T14:15:32.619Z,50.38
2022-09-24T14:18:01.529Z,50.50
2022-09-24T14:20:32.902Z,50.86
2022-09-24T14:23:02.945Z,51.12
2022-09-24T14:25:35.914Z,51.29
2022-09-24T14:28:06.744Z,51.29
2022-09-24T14:30:40.948Z,51.55
2022-09-24T14:33:17.515Z,52.04
2022-09-24T14:35:48.995Z,52.29
2022-09-24T14:38:23.232Z,52.36
2022-09-24T14:40:57.239Z,52.20
2022-09-24T14:43:31.932Z,52.36
2022-09-24T14:46:11.956Z,52.23
2022-09-24T14:48:41.300Z,52.30
2022-09-24T14:51:28.237Z,52.54
2022-09-24T14:54:02.975Z,52.64
2022-09-24T14:56:33.342Z,52.87
2022-09-24T14:59:02.564Z,52.85
2022-09-24T15:01:35.039Z,52.69
2022-09-24T15:04:05.648Z,52.67
2022-09-24T15:06:37.093Z,52.47
2022-09-24T15:09:09.027Z,52.37
2022-09-24T15:11:43.808Z,52.41
2022-09-24T15:14:26.226Z,52.57
2022-09-24T15:16:57.365Z,52.83
2022-09-24T15:19:29.221Z,52.91
2022-09-24T15:21:58.977Z,53.35
2022-09-24T15:24:27.726Z,53.40
2022-09-24T15:27:04.242Z,53.40
2022-09-24T15:29:33.700Z,53.59
2022-09-24T15:32:04.176Z,53.85
2022-09-24T15:34:32.757Z,53.95
2022-09-24T15:37:01.457Z,54.39
2022-09-24T15:39:32.136Z,54.70
2022-09-24T15:42:00.839Z,54.37
2022-09-24T15:44:33.816Z,54.63
2022-09-24T15:47:04.696Z,54.93
2022-09-24T15:49:33.271Z,55.14
2022-09-24T15:52:07.447Z,55.18
2022-09-24T15:54:36.499Z,54.22
2022-09-24T15:57:05.251Z,53.61
2022-09-24T15:59:34.151Z,53.78
2022-09-24T16:02:12.720Z,54.42
2022-09-24T16:04:41.401Z,53.76
2022-09-24T16:07:10.088Z,53.70
2022-09-24T16:09:38.798Z,53.43
2022-09-24T16:12:07.319Z,53.62
2022-09-24T16:14:36.071Z,53.77
2022-09-24T16:17:06.159Z,54.62
2022-09-24T16:19:34.848Z,54.33
2022-09-24T16:22:03.465Z,54.48
2022-09-24T16:24:34.023Z,53.75
2022-09-24T16:27:03.020Z,53.66
2022-09-24T16:29:31.511Z,53.96
2022-09-24T16:32:02.285Z,54.15
2022-09-24T16:34:33.084Z,54.07
2022-09-24T16:37:01.887Z,54.18
2022-09-24T16:39:30.534Z,53.92
2022-09-24T16:41:59.234Z,54.22
2022-09-24T16:44:27.865Z,54.65
2022-09-24T16:46:56.491Z,54.35
2022-09-24T16:49:25.243Z,54.80
2022-09-24T16:51:56.300Z,55.26
2022-09-24T16:54:25.580Z,55.51
2022-09-24T16:56:54.029Z,56.47
2022-09-24T16:59:23.343Z,56.87
2022-09-24T17:01:53.935Z,58.14
2022-09-24T17:04:22.806Z,58.38
2022-09-24T17:06:51.436Z,59.31
2022-09-24T17:09:32.375Z,58.87
2022-09-24T17:12:01.115Z,58.46
2022-09-24T17:14:29.776Z,58.92
2022-09-24T17:16:59.166Z,59.50
2022-09-24T17:19:27.918Z,59.33
2022-09-24T17:21:56.613Z,59.34
2022-09-24T17:24:26.754Z,59.55
2022-09-24T17:26:56.874Z,59.20
2022-09-24T17:29:31.158Z,58.89
2022-09-24T17:32:01.025Z,58.43
2022-09-24T17:34:29.573Z,58.51
2022-09-24T17:36:59.687Z,58.33
2022-09-24T17:39:31.138Z,58.74
2022-09-24T17:42:01.137Z,59.06
2022-09-24T17:44:29.855Z,59.75
2022-09-24T17:46:58.711Z,59.96
2022-09-24T17:49:27.448Z,59.39
2022-09-24T17:51:58.466Z,59.14
2022-09-24T17:54:27.435Z,58.63
2022-09-24T17:56:57.768Z,58.80
2022-09-24T17:59:27.083Z,58.92
2022-09-24T18:01:56.490Z,58.65
2022-09-24T18:04:28.703Z,59.35
2022-09-24T18:06:57.596Z,58.94
2022-09-24T18:09:26.215Z,58.32
2022-09-24T18:11:58.596Z,58.63
2022-09-24T18:14:29.675Z,58.76
2022-09-24T18:17:00.375Z,58.38
2022-09-24T18:19:29.636Z,58.65
2022-09-24T18:22:02.096Z,59.58
2022-09-24T18:24:31.515Z,60.89
2022-09-24T18:27:01.544Z,61.62
2022-09-24T18:29:30.496Z,62.63
2022-09-24T18:31:59.213Z,63.37
2022-09-24T18:34:28.336Z,62.62
2022-09-24T18:36:57.004Z,62.46
2022-09-24T18:39:25.944Z,62.51
2022-09-24T18:41:55.953Z,62.12
2022-09-24T18:44:26.665Z,61.84
2022-09-24T18:46:55.347Z,61.93
2022-09-24T18:49:24.296Z,63.43
2022-09-24T18:51:53.406Z,63.69
2022-09-24T18:54:22.259Z,63.39
2022-09-24T18:56:52.413Z,62.47
2022-09-24T18:59:24.135Z,62.19
2022-09-24T19:01:55.924Z,61.41
2022-09-24T19:04:28.035Z,60.37
2022-09-24T19:07:00.586Z,59.76
2022-09-24T19:09:29.386Z,59.90
2022-09-24T19:11:58.747Z,60.88
2022-09-24T19:14:27.706Z,60.60
2022-09-24T19:16:59.220Z,59.72
2022-09-24T19:19:29.517Z,59.73
2022-09-24T19:22:02.596Z,59.72
2022-09-24T19:24:32.618Z,60.19
2022-09-24T19:27:01.485Z,59.53
2022-09-24T19:29:30.364Z,59.30
2022-09-24T19:32:00.656Z,60.37
2022-09-24T19:34:29.765Z,60.82
2022-09-24T19:36:59.774Z,61.73
2022-09-24T19:39:28.756Z,61.27
2022-09-24T19:41:57.470Z,61.90
2022-09-24T19:44:26.415Z,62.29
2022-09-24T19:46:55.564Z,63.24
2022-09-24T19:49:25.795Z,63.37
2022-09-24T19:51:54.546Z,63.53
2022-09-24T19:54:23.498Z,64.42
2022-09-24T19:56:52.059Z,65.47
2022-09-24T19:59:22.027Z,66.03
2022-09-24T20:01:51.618Z,66.17
2022-09-24T20:04:21.577Z,66.91
2022-09-24T20:06:52.267Z,67.68
2022-09-24T20:09:21.206Z,67.95
2022-09-24T20:11:51.065Z,68.31
2022-09-24T20:14:21.833Z,68.66
2022-09-24T20:16:50.685Z,68.89
2022-09-24T20:19:19.556Z,68.62
2022-09-24T20:21:48.412Z,69.28
2022-09-24T20:24:18.497Z,69.19
2022-09-24T20:26:57.327Z,69.86
2022-09-24T20:29:26.442Z,70.09
2022-09-24T20:31:57.266Z,70.25
2022-09-24T20:34:31.890Z,69.70
2022-09-24T20:37:02.068Z,69.90
2022-09-24T20:39:33.838Z,70.37
2022-09-24T20:42:06.418Z,70.03
2022-09-24T20:44:35.885Z,70.31
2022-09-24T20:47:04.819Z,70.42
2022-09-24T20:49:35.140Z,70.48
2022-09-24T20:52:06.037Z,70.46
2022-09-24T20:54:36.220Z,70.62
2022-09-24T20:57:07.887Z,70.38
2022-09-24T20:59:37.060Z,70.48
2022-09-24T21:02:06.587Z,70.35
2022-09-24T21:04:36.022Z,70.58
2022-09-24T21:07:04.888Z,70.69
2022-09-24T21:09:33.565Z,70.92
2022-09-24T21:12:04.155Z,70.78
2022-09-24T21:14:34.598Z,71.13
2022-09-24T21:17:03.171Z,71.18
2022-09-24T21:19:35.909Z,71.10
2022-09-24T21:22:06.378Z,71.62
2022-09-24T21:24:35.173Z,71.65
2022-09-24T21:27:05.478Z,71.67
2022-09-24T21:29:34.247Z,72.00
2022-09-24T21:32:03.356Z,71.72
2022-09-24T21:34:32.107Z,72.37
2022-09-24T21:37:00.677Z,72.30
2022-09-24T21:39:29.321Z,72.37
2022-09-24T21:41:59.832Z,72.68
2022-09-24T21:44:34.375Z,72.81
2022-09-24T21:47:03.449Z,73.03
2022-09-24T21:49:33.998Z,73.48
2022-09-24T21:52:05.435Z,73.33
2022-09-24T21:54:34.935Z,73.53
2022-09-24T21:57:03.486Z,73.77
2022-09-24T21:59:43.425Z,73.59
2022-09-24T22:02:12.405Z,73.49
2022-09-24T22:04:41.047Z,73.30
2022-09-24T22:07:09.933Z,73.26
2022-09-24T22:09:39.714Z,73.21
2022-09-24T22:12:08.501Z,73.20
2022-09-24T22:14:38.500Z,73.13
2022-09-24T22:17:07.671Z,73.08
2022-09-24T22:19:36.189Z,73.12
2022-09-24T22:22:05.021Z,73.14
2022-09-24T22:24:33.685Z,73.05
2022-09-24T22:27:02.354Z,73.09
2022-09-24T22:29:31.442Z,73.18
2022-09-24T22:32:01.474Z,73.32
2022-09-24T22:34:40.587Z,73.20
2022-09-24T22:37:09.243Z,73.35
2022-09-24T22:39:37.846Z,73.52
2022-09-24T22:42:06.977Z,73.67
2022-09-24T22:44:35.557Z,73.76
2022-09-24T22:47:05.739Z,73.82
2022-09-24T22:49:34.555Z,73.95
2022-09-24T22:52:03.425Z,74.23
2022-09-24T22:54:32.036Z,74.23
2022-09-24T22:57:00.629Z,74.31
2022-09-24T22:59:29.363Z,74.07
2022-09-24T23:01:57.886Z,74.41
2022-09-24T23:04:28.035Z,74.46
2022-09-24T23:06:56.687Z,74.49
2022-09-24T23:09:26.518Z,74.63
2022-09-24T23:11:57.117Z,74.78
2022-09-24T23:14:25.875Z,74.76
2022-09-24T23:16:54.862Z,74.70
2022-09-24T23:19:23.603Z,74.93
2022-09-24T23:21:53.727Z,74.97
2022-09-24T23:24:22.548Z,74.88
2022-09-24T23:26:51.593Z,75.06
2022-09-24T23:29:20.335Z,75.01
2022-09-24T23:31:48.904Z,75.00
2022-09-24T23:34:17.537Z,75.12
2022-09-24T23:36:46.426Z,75.09
2022-09-24T23:39:16.512Z,75.16
2022-09-24T23:41:45.695Z,75.32
2022-09-24T23:44:14.335Z,75.40
2022-09-24T23:46:43.045Z,75.32
2022-09-24T23:49:12.088Z,75.36
2022-09-24T23:51:40.786Z,75.54
2022-09-24T23:54:09.445Z,75.62
2022-09-24T23:56:39.628Z,75.92
2022-09-24T23:59:08.975Z,75.71
